Yellowstone National Park, Wyoming
Current Conditions -  °F | °C
As of 2:56 AM on Saturday 20 Dec 2014 (Local Time) from KDIJ Reporting Station
Overcast Overcast  
Wind Chill: -5°   Ceiling: 4500
Heat Index: -1°   Visibility: 10mi
Dew Point: -3°   Wind: 8mph
Humidity: 89%   Direction: 190°S
Pressure: 30.07"   Gusts: NA
Location:  44.5747°N, 110.518°W
Report Text: KDIJ 200956Z AUTO 19007KT 10SM FEW019 SCT036 OVC045 M01/M03 A3007 RMK AO2 T10111027 SLP174
Loading
Personal Weather Stations






























Interactive Weather Map New forecast layout! Learn more

10-Day Weather Forecast

Advertisements
Track Severe Weather on mobile